Time;durP1;ratioP1;P1;durP2;ratioP2;P2;SDS_P1;SDS_P2;PMS_P1;PMS_P2;Temp;Humidity;BMP_temperature;BMP_pressure;BME280_temperature;BME280_humidity;BME280_pressure;Samples;Min_cycle;Max_cycle;Signal;HPM_P1;HPM_P2
2022/03/24 00:03:58;;;;;;;17.40;14.20;;;8.40;75.50;;;;;;10530752;28;20226;-71
2022/03/24 00:08:59;;;;;;;21.80;14.50;;;8.20;76.00;;;;;;10517772;28;20246;-70
2022/03/24 00:14:00;;;;;;;22.00;13.97;;;8.00;76.50;;;;;;10520487;28;20685;-70
2022/03/24 00:19:01;;;;;;;17.13;13.20;;;8.00;78.20;;;;;;10499583;28;20235;-71
2022/03/24 00:24:02;;;;;;;20.20;14.33;;;7.90;77.40;;;;;;10507239;28;20216;-71
2022/03/24 00:29:08;;;;;;;17.80;13.77;;;7.80;77.60;;;;;;10515954;28;20223;-71
2022/03/24 00:34:09;;;;;;;23.40;13.63;;;7.80;78.80;;;;;;10506672;28;20451;-72
2022/03/24 00:39:10;;;;;;;20.17;14.33;;;7.70;79.10;;;;;;10500199;28;20231;-71
2022/03/24 00:44:11;;;;;;;17.70;13.23;;;7.60;79.40;;;;;;10533289;28;20223;-70
2022/03/24 00:49:12;;;;;;;18.60;13.93;;;7.50;80.00;;;;;;10520075;28;20373;-70
2022/03/24 00:54:12;;;;;;;19.33;13.77;;;7.30;79.30;;;;;;10519869;28;20301;-71
2022/03/24 00:59:13;;;;;;;17.63;14.00;;;7.30;80.00;;;;;;10520228;28;20223;-71
2022/03/24 01:04:17;;;;;;;24.07;17.13;;;7.30;80.00;;;;;;10520946;28;20225;-72
2022/03/24 01:09:18;;;;;;;18.60;13.50;;;7.30;80.30;;;;;;10514626;28;20219;-72
2022/03/24 01:14:18;;;;;;;19.37;13.23;;;7.30;79.50;;;;;;10519854;28;20234;-72
2022/03/24 01:19:19;;;;;;;20.40;15.10;;;7.30;77.90;;;;;;10528035;28;20245;-69
2022/03/24 01:24:20;;;;;;;24.20;15.90;;;7.40;80.30;;;;;;10517298;28;20227;-70
2022/03/24 01:29:22;;;;;;;24.70;15.90;;;7.40;80.40;;;;;;10518387;28;20222;-69
2022/03/24 01:34:23;;;;;;;19.70;14.53;;;7.20;80.70;;;;;;10531526;28;20234;-70
2022/03/24 01:39:23;;;;;;;21.00;15.40;;;7.10;80.80;;;;;;10503275;28;20242;-71
2022/03/24 01:44:26;;;;;;;21.20;15.10;;;7.00;81.70;;;;;;10522465;28;20223;-71
2022/03/24 01:49:33;;;;;;;26.10;15.50;;;6.90;82.60;;;;;;10511855;28;20897;-70
2022/03/24 01:54:37;;;;;;;20.23;15.13;;;6.80;83.30;;;;;;10508739;28;20306;-70
2022/03/24 01:59:38;;;;;;;21.40;15.23;;;6.70;83.40;;;;;;10508941;28;20243;-70
2022/03/24 02:04:38;;;;;;;19.77;13.80;;;6.60;85.50;;;;;;10511823;28;20218;-70
2022/03/24 02:09:40;;;;;;;21.27;14.23;;;6.60;85.20;;;;;;10518020;28;20241;-70
2022/03/24 02:14:42;;;;;;;22.30;14.70;;;6.50;85.30;;;;;;10512279;28;20247;-71
2022/03/24 02:19:45;;;;;;;17.93;14.07;;;6.40;86.00;;;;;;10519464;28;20720;-70
2022/03/24 02:24:46;;;;;;;21.10;14.03;;;6.30;86.90;;;;;;10510696;28;20772;-70
2022/03/24 02:29:47;;;;;;;19.13;13.03;;;6.30;87.10;;;;;;10520530;28;20261;-71
2022/03/24 02:34:48;;;;;;;22.60;13.37;;;6.20;86.00;;;;;;10502050;28;20319;-69
2022/03/24 02:39:57;;;;;;;20.00;12.63;;;6.20;86.30;;;;;;10500030;28;20227;-71
2022/03/24 02:45:02;;;;;;;15.80;12.10;;;6.20;85.70;;;;;;10508354;28;20712;-70
2022/03/24 02:50:03;;;;;;;16.87;12.70;;;6.20;85.90;;;;;;10508961;28;20640;-69
2022/03/24 02:55:05;;;;;;;16.93;11.97;;;6.10;86.30;;;;;;10525939;28;20253;-70
2022/03/24 03:00:07;;;;;;;15.57;11.73;;;6.10;85.90;;;;;;10512143;28;20218;-68
2022/03/24 03:05:08;;;;;;;18.87;12.90;;;6.20;86.10;;;;;;10518326;28;20197;-69
2022/03/24 03:10:09;;;;;;;19.93;12.47;;;6.00;85.90;;;;;;10514163;28;20245;-70
2022/03/24 03:15:10;;;;;;;18.80;11.97;;;6.00;86.60;;;;;;10529528;28;20218;-71
2022/03/24 03:20:15;;;;;;;18.57;12.37;;;6.00;86.90;;;;;;10504420;28;20285;-71
2022/03/24 03:25:16;;;;;;;19.97;14.10;;;5.80;86.70;;;;;;10517656;28;20554;-70
2022/03/24 03:30:16;;;;;;;18.87;13.37;;;5.80;86.40;;;;;;10513141;28;20202;-70
2022/03/24 03:35:18;;;;;;;21.67;13.97;;;5.70;86.70;;;;;;10520345;28;20217;-69
2022/03/24 03:40:19;;;;;;;20.97;13.10;;;5.60;87.30;;;;;;10512904;28;20284;-71
2022/03/24 03:45:20;;;;;;;21.20;14.93;;;5.60;88.00;;;;;;10530772;28;20333;-70
2022/03/24 03:50:21;;;;;;;21.87;14.83;;;5.50;88.00;;;;;;10503913;28;20699;-69
2022/03/24 03:55:22;;;;;;;23.10;15.93;;;5.40;88.30;;;;;;10519697;28;20211;-70
2022/03/24 04:05:46;;;;;;;21.07;13.90;;;5.50;88.50;;;;;;10524779;28;20254;-69
2022/03/24 04:10:49;;;;;;;19.43;14.27;;;5.40;88.70;;;;;;10497414;28;20732;-71
2022/03/24 04:15:52;;;;;;;27.80;16.43;;;5.40;89.00;;;;;;10523101;28;20319;-69
2022/03/24 04:20:53;;;;;;;24.60;15.67;;;5.40;89.80;;;;;;10504640;28;20567;-71
2022/03/24 04:25:57;;;;;;;27.63;16.60;;;5.40;90.10;;;;;;10524634;28;20269;-70
2022/03/24 04:30:58;;;;;;;24.67;15.50;;;5.40;90.20;;;;;;10523279;28;20237;-69
2022/03/24 04:35:59;;;;;;;25.13;15.87;;;5.40;90.50;;;;;;10516393;28;20241;-70
2022/03/24 04:41:01;;;;;;;21.33;14.90;;;5.40;90.60;;;;;;10524063;28;20314;-71
2022/03/24 04:46:02;;;;;;;23.73;15.20;;;5.40;90.90;;;;;;10502662;28;20312;-70
2022/03/24 04:51:05;;;;;;;24.97;15.33;;;5.30;90.90;;;;;;10515972;28;20223;-70
2022/03/24 04:56:06;;;;;;;19.47;14.90;;;5.30;91.40;;;;;;10519212;28;20707;-70
2022/03/24 05:01:07;;;;;;;22.13;15.73;;;5.20;91.60;;;;;;10505855;28;20281;-70
2022/03/24 05:06:08;;;;;;;24.80;16.30;;;5.10;92.40;;;;;;10519349;28;20251;-71
2022/03/24 05:11:09;;;;;;;22.37;15.63;;;5.10;92.40;;;;;;10522448;28;20234;-71
2022/03/24 05:16:10;;;;;;;22.70;15.57;;;5.00;92.90;;;;;;10512936;28;20241;-71
2022/03/24 05:21:11;;;;;;;18.87;14.43;;;4.90;93.20;;;;;;10517917;28;20250;-70
2022/03/24 05:26:11;;;;;;;23.53;16.57;;;5.00;93.70;;;;;;10521926;28;20237;-70
2022/03/24 05:31:12;;;;;;;22.03;15.83;;;5.00;93.80;;;;;;10497738;28;20227;-71
2022/03/24 05:36:15;;;;;;;23.60;14.93;;;5.00;93.30;;;;;;10526642;28;20258;-71
2022/03/24 05:41:15;;;;;;;27.03;16.57;;;5.10;92.90;;;;;;10520792;28;20219;-71
2022/03/24 05:46:16;;;;;;;27.67;16.90;;;5.10;93.10;;;;;;10512229;28;20220;-70
2022/03/24 05:51:17;;;;;;;20.40;14.87;;;5.10;93.20;;;;;;10525618;28;20230;-71
2022/03/24 05:56:19;;;;;;;23.30;15.30;;;5.20;93.30;;;;;;10501256;28;20300;-72
2022/03/24 06:01:20;;;;;;;28.47;15.53;;;5.30;92.90;;;;;;10505401;28;20229;-71
2022/03/24 06:06:22;;;;;;;28.20;15.33;;;5.40;92.90;;;;;;10497190;28;20233;-71
2022/03/24 06:11:24;;;;;;;29.50;15.27;;;5.60;92.60;;;;;;10496865;28;20721;-72
2022/03/24 06:16:24;;;;;;;25.17;15.07;;;5.90;92.50;;;;;;10523084;28;20234;-72
2022/03/24 06:21:25;;;;;;;27.97;16.37;;;6.10;91.60;;;;;;10522757;28;20335;-72
2022/03/24 06:26:26;;;;;;;24.17;15.37;;;6.30;91.10;;;;;;10512629;28;20246;-71
2022/03/24 06:31:27;;;;;;;21.67;15.27;;;6.40;91.50;;;;;;10504797;28;20635;-71
2022/03/24 06:36:28;;;;;;;20.37;14.40;;;6.70;90.70;;;;;;10514740;28;20326;-71
2022/03/24 06:41:28;;;;;;;24.10;15.00;;;6.90;89.40;;;;;;10514725;28;20246;-72
2022/03/24 06:46:29;;;;;;;28.70;15.97;;;7.20;87.50;;;;;;10510773;28;20809;-71
2022/03/24 06:51:30;;;;;;;26.37;15.03;;;7.40;87.30;;;;;;10497509;28;20254;-71
2022/03/24 06:56:30;;;;;;;25.10;15.53;;;8.20;83.70;;;;;;10500622;28;20243;-70
2022/03/24 07:01:31;;;;;;;23.93;15.70;;;8.50;81.60;;;;;;10511976;28;20222;-70
2022/03/24 07:06:32;;;;;;;26.73;14.93;;;8.50;80.70;;;;;;10530735;28;20573;-71
2022/03/24 07:11:32;;;;;;;25.17;15.40;;;8.90;79.30;;;;;;10519736;28;20235;-71
2022/03/24 07:16:33;;;;;;;23.13;14.93;;;9.30;76.90;;;;;;10512617;28;20226;-72
2022/03/24 07:21:34;;;;;;;22.30;14.50;;;9.60;75.60;;;;;;10506131;28;20318;-71
2022/03/24 07:26:35;;;;;;;20.17;14.13;;;9.60;74.70;;;;;;10514456;28;20681;-71
2022/03/24 07:31:36;;;;;;;26.97;15.90;;;9.60;74.20;;;;;;10508400;28;20222;-71
2022/03/24 07:36:37;;;;;;;26.23;15.93;;;9.80;73.90;;;;;;10494959;28;20620;-71
2022/03/24 07:41:38;;;;;;;22.97;15.60;;;10.30;72.80;;;;;;10515747;28;20214;-70
2022/03/24 07:46:41;;;;;;;20.80;15.20;;;10.80;69.80;;;;;;10512885;28;20269;-70
2022/03/24 07:51:42;;;;;;;23.33;15.87;;;11.00;67.80;;;;;;10502662;28;20321;-70
2022/03/24 07:56:43;;;;;;;33.53;17.30;;;11.80;63.80;;;;;;10514514;28;20230;-70
2022/03/24 08:01:44;;;;;;;37.30;16.70;;;14.00;58.70;;;;;;10509151;28;20224;-71
2022/03/24 08:06:44;;;;;;;30.13;17.27;;;17.70;49.40;;;;;;10521771;28;20233;-70
2022/03/24 08:11:45;;;;;;;24.40;17.20;;;20.20;42.30;;;;;;10514235;28;20234;-71
2022/03/24 08:16:46;;;;;;;23.07;16.47;;;22.20;37.60;;;;;;10506086;28;20229;-71
2022/03/24 08:21:46;;;;;;;23.23;16.07;;;24.00;33.50;;;;;;10513379;28;20227;-71
2022/03/24 08:26:47;;;;;;;23.03;16.33;;;23.70;31.70;;;;;;10525723;28;20230;-71
2022/03/24 08:31:48;;;;;;;22.67;16.43;;;23.40;31.60;;;;;;10505639;28;20279;-72
2022/03/24 08:36:49;;;;;;;20.60;16.23;;;23.50;31.60;;;;;;10503329;28;20235;-71
2022/03/24 08:41:51;;;;;;;19.23;16.17;;;23.80;31.20;;;;;;10520685;28;20234;-71
2022/03/24 08:46:52;;;;;;;19.50;15.80;;;23.60;31.30;;;;;;10513398;28;20227;-72
2022/03/24 08:51:53;;;;;;;19.70;15.23;;;23.70;30.90;;;;;;10519917;28;20226;-72
2022/03/24 08:56:53;;;;;;;20.40;16.03;;;25.70;29.80;;;;;;10495350;28;20237;-72
2022/03/24 09:01:54;;;;;;;18.13;16.27;;;26.60;28.10;;;;;;10510720;28;20241;-71
2022/03/24 09:06:54;;;;;;;19.07;17.07;;;27.20;27.30;;;;;;10509563;28;20230;-72
2022/03/24 09:11:55;;;;;;;18.23;16.33;;;27.70;26.30;;;;;;10512776;28;20235;-71
2022/03/24 09:16:59;;;;;;;21.83;17.57;;;29.50;27.60;;;;;;10520499;28;20238;-73
2022/03/24 09:22:00;;;;;;;19.43;17.57;;;29.90;25.70;;;;;;10515735;28;20231;-72
2022/03/24 09:27:03;;;;;;;19.57;17.57;;;31.60;24.60;;;;;;10503658;28;20229;-73
2022/03/24 09:32:04;;;;;;;19.93;17.77;;;32.10;23.40;;;;;;10499353;28;20284;-72
2022/03/24 09:37:05;;;;;;;21.87;18.20;;;32.00;24.40;;;;;;10495767;28;20790;-72
2022/03/24 09:42:06;;;;;;;21.07;18.30;;;33.80;22.40;;;;;;10519665;28;20240;-72
2022/03/24 09:47:09;;;;;;;20.83;18.67;;;34.50;22.70;;;;;;10524355;28;20223;-73
2022/03/24 09:52:11;;;;;;;22.23;19.50;;;35.30;21.70;;;;;;10517795;28;20668;-72
2022/03/24 09:57:15;;;;;;;28.93;19.70;;;33.50;21.70;;;;;;10501678;28;20257;-73
2022/03/24 10:02:16;;;;;;;22.50;19.73;;;33.80;22.80;;;;;;10513991;28;20285;-71
2022/03/24 10:07:25;;;;;;;21.60;19.40;;;33.00;21.20;;;;;;10509644;28;20238;-71
2022/03/24 10:12:36;;;;;;;22.37;20.00;;;34.30;21.90;;;;;;10508900;28;20231;-71
2022/03/24 10:17:39;;;;;;;24.00;21.50;;;33.00;21.30;;;;;;10519451;28;20239;-71
2022/03/24 10:22:51;;;;;;;23.60;20.73;;;32.20;22.00;;;;;;10490855;28;20770;-71
2022/03/24 10:28:09;;;;;;;22.57;20.43;;;32.90;21.60;;;;;;10509078;28;20809;-70
2022/03/24 10:33:29;;;;;;;27.07;19.33;;;35.30;21.20;;;;;;10513934;28;20284;-71
2022/03/24 10:38:33;;;;;;;22.67;20.47;;;37.30;19.80;;;;;;10517336;28;20230;-71
2022/03/24 10:43:36;;;;;;;21.83;19.70;;;38.40;18.90;;;;;;10514426;28;20317;-71
2022/03/24 10:48:37;;;;;;;22.33;20.13;;;37.30;18.90;;;;;;10507421;28;20262;-71
2022/03/24 10:53:40;;;;;;;22.20;20.00;;;36.20;19.10;;;;;;10498594;28;20816;-71
2022/03/24 10:58:44;;;;;;;23.80;21.40;;;35.00;20.50;;;;;;10516315;28;20226;-71
2022/03/24 11:03:45;;;;;;;23.93;21.40;;;34.10;20.70;;;;;;10493369;28;20225;-72
2022/03/24 11:09:01;;;;;;;28.40;22.57;;;33.40;21.60;;;;;;10505358;28;20242;-71
2022/03/24 11:14:04;;;;;;;28.13;22.80;;;35.70;19.80;;;;;;10509709;28;20230;-72
2022/03/24 11:19:14;;;;;;;26.53;23.13;;;34.10;20.60;;;;;;10513433;28;20963;-71
2022/03/24 11:24:15;;;;;;;24.00;21.53;;;34.20;20.10;;;;;;10510909;28;20239;-71
2022/03/24 11:29:16;;;;;;;25.33;22.73;;;35.10;20.80;;;;;;10512034;28;20230;-72
2022/03/24 11:34:18;;;;;;;27.53;24.67;;;32.10;21.80;;;;;;10511049;28;20229;-72
2022/03/24 11:39:20;;;;;;;25.57;22.80;;;27.70;25.20;;;;;;10520409;28;20219;-71
2022/03/24 11:44:35;;;;;;;26.87;20.60;;;25.40;27.20;;;;;;10519695;28;20227;-72
2022/03/24 11:49:39;;;;;;;29.43;21.07;;;24.30;29.00;;;;;;10508835;28;20697;-71
2022/03/24 11:54:52;;;;;;;21.27;18.97;;;23.40;29.00;;;;;;10525103;28;20227;-71
2022/03/24 12:00:14;;;;;;;21.90;17.07;;;22.70;30.90;;;;;;10523124;28;20380;-71
2022/03/24 12:05:16;;;;;;;27.43;19.93;;;22.50;31.20;;;;;;10520140;28;20234;-72
2022/03/24 12:10:30;;;;;;;23.90;19.00;;;22.20;30.80;;;;;;10519283;28;20244;-72
2022/03/24 12:15:31;;;;;;;24.60;18.57;;;21.80;31.70;;;;;;10517480;28;20403;-73
2022/03/24 12:20:43;;;;;;;21.60;17.83;;;21.70;33.10;;;;;;10511530;28;20310;-71
2022/03/24 12:25:44;;;;;;;30.33;18.93;;;21.70;32.70;;;;;;10496076;28;20857;-71
2022/03/24 12:31:06;;;;;;;26.47;17.20;;;21.70;33.20;;;;;;10503649;28;20332;-71
2022/03/24 12:36:14;;;;;;;18.80;16.13;;;21.40;32.50;;;;;;10514550;28;20223;-71
2022/03/24 12:41:17;;;;;;;21.13;15.77;;;21.20;32.40;;;;;;10517835;28;20261;-71
2022/03/24 12:46:26;;;;;;;20.77;16.60;;;21.10;31.00;;;;;;10499779;28;20222;-72
2022/03/24 12:51:29;;;;;;;23.87;16.87;;;21.10;31.20;;;;;;10524068;28;20218;-72
2022/03/24 12:56:32;;;;;;;20.87;17.07;;;21.00;31.30;;;;;;10514778;28;20270;-71
2022/03/24 13:01:34;;;;;;;23.10;16.83;;;20.90;32.40;;;;;;10521514;28;20924;-71
2022/03/24 13:06:39;;;;;;;19.13;15.40;;;20.90;31.10;;;;;;10504973;28;20223;-71
2022/03/24 13:11:50;;;;;;;22.87;17.97;;;20.90;31.20;;;;;;10512062;28;20262;-71
2022/03/24 13:17:10;;;;;;;26.93;18.23;;;20.70;31.60;;;;;;10513576;28;20291;-71
2022/03/24 13:22:19;;;;;;;27.20;20.80;;;20.50;32.00;;;;;;10516792;28;20253;-72
2022/03/24 13:27:20;;;;;;;27.10;20.23;;;20.50;34.10;;;;;;10497887;28;20250;-71
2022/03/24 13:32:26;;;;;;;29.23;20.47;;;20.60;34.90;;;;;;10514791;28;20227;-71
2022/03/24 13:37:38;;;;;;;29.03;20.47;;;20.50;34.90;;;;;;10498480;28;20238;-71
2022/03/24 13:42:40;;;;;;;26.27;18.70;;;20.60;35.30;;;;;;10525190;28;20226;-71
2022/03/24 13:47:43;;;;;;;26.93;20.60;;;20.60;34.50;;;;;;10520696;28;20239;-71
2022/03/24 13:52:46;;;;;;;31.13;21.17;;;20.60;34.70;;;;;;10501507;28;20223;-71
2022/03/24 13:58:01;;;;;;;30.07;23.23;;;20.60;35.10;;;;;;10529407;28;20309;-71
2022/03/24 14:03:22;;;;;;;29.93;22.73;;;20.60;35.30;;;;;;10494689;28;20219;-71
2022/03/24 14:08:28;;;;;;;32.63;24.57;;;20.40;34.90;;;;;;10514214;28;20304;-70
2022/03/24 14:13:31;;;;;;;34.13;25.67;;;20.10;36.30;;;;;;10516234;28;20226;-71
2022/03/24 14:18:32;;;;;;;36.20;24.90;;;20.00;36.30;;;;;;10509290;28;20740;-71
2022/03/24 14:23:34;;;;;;;36.03;24.83;;;19.90;36.30;;;;;;10511344;28;20318;-70
2022/03/24 14:28:37;;;;;;;33.37;22.80;;;19.80;36.70;;;;;;10515604;28;20895;-70
2022/03/24 14:33:45;;;;;;;32.90;23.50;;;19.90;36.70;;;;;;10492963;28;20240;-70
2022/03/24 14:39:18;;;;;;;34.47;23.93;;;19.90;36.60;;;;;;10520617;28;20222;-70
2022/03/24 14:44:20;;;;;;;33.97;24.00;;;19.90;36.50;;;;;;10513522;28;20262;-70
2022/03/24 14:49:21;;;;;;;28.90;21.60;;;19.90;37.00;;;;;;10514632;28;20323;-71
2022/03/24 14:54:22;;;;;;;29.33;21.30;;;19.90;37.50;;;;;;10494897;28;20319;-71
2022/03/24 14:59:23;;;;;;;29.37;21.17;;;19.90;36.70;;;;;;10513487;28;20589;-70
2022/03/24 15:04:23;;;;;;;30.77;21.03;;;19.70;36.80;;;;;;10522811;28;20214;-70
2022/03/24 15:09:24;;;;;;;27.63;21.00;;;19.70;36.70;;;;;;10503714;28;20234;-73
2022/03/24 15:19:44;;;;;;;31.07;20.50;;;19.50;37.00;;;;;;10513305;28;20231;-70
2022/03/24 15:24:44;;;;;;;30.03;20.47;;;19.50;36.50;;;;;;10521375;28;20219;-71
2022/03/24 15:29:45;;;;;;;34.47;23.10;;;19.40;36.30;;;;;;10499809;28;20222;-71
2022/03/24 15:34:49;;;;;;;27.63;20.93;;;19.40;36.50;;;;;;10516689;28;20305;-71
2022/03/24 15:39:50;;;;;;;30.77;21.93;;;19.20;36.80;;;;;;10509930;28;20437;-71
2022/03/24 15:44:51;;;;;;;27.70;21.30;;;19.10;36.70;;;;;;10500946;28;20249;-71
2022/03/24 15:49:52;;;;;;;28.70;21.03;;;19.00;37.00;;;;;;10506474;28;20291;-71
2022/03/24 15:54:52;;;;;;;28.47;21.50;;;18.90;37.00;;;;;;10524002;28;20229;-72
2022/03/24 15:59:53;;;;;;;31.37;22.10;;;18.80;37.40;;;;;;10519879;28;20214;-71
2022/03/24 16:04:53;;;;;;;28.43;20.33;;;18.70;37.50;;;;;;10507738;28;20234;-71
2022/03/24 16:09:54;;;;;;;30.53;21.70;;;18.60;37.70;;;;;;10506058;28;20230;-71
2022/03/24 16:14:54;;;;;;;25.23;20.20;;;18.50;37.20;;;;;;10514088;28;20306;-71
2022/03/24 16:19:55;;;;;;;31.67;20.90;;;18.30;37.50;;;;;;10512970;28;20221;-70
2022/03/24 16:24:56;;;;;;;28.17;20.90;;;18.20;37.70;;;;;;10507485;28;20227;-71
2022/03/24 16:29:56;;;;;;;30.17;21.30;;;18.10;37.90;;;;;;10513082;28;20229;-71
2022/03/24 16:34:57;;;;;;;28.53;21.50;;;17.90;38.00;;;;;;10506873;28;20247;-71
2022/03/24 16:39:58;;;;;;;31.47;21.03;;;17.70;38.60;;;;;;10515200;28;20246;-72
2022/03/24 16:44:59;;;;;;;32.50;22.30;;;17.60;38.70;;;;;;10514780;28;20585;-71
2022/03/24 16:50:00;;;;;;;30.60;21.50;;;17.50;39.00;;;;;;10519732;28;20634;-71
2022/03/24 16:55:00;;;;;;;29.80;20.67;;;17.40;39.10;;;;;;10496207;28;20281;-71
2022/03/24 17:00:05;;;;;;;27.43;19.83;;;17.20;39.90;;;;;;10502635;28;20218;-71
2022/03/24 17:05:06;;;;;;;25.73;18.47;;;16.90;40.50;;;;;;10517940;28;20290;-70
2022/03/24 17:10:08;;;;;;;28.03;20.63;;;16.70;41.10;;;;;;10515075;28;20360;-70
2022/03/24 17:15:09;;;;;;;27.47;20.47;;;16.50;41.70;;;;;;10525965;28;20261;-70
2022/03/24 17:20:14;;;;;;;25.70;20.17;;;16.30;42.80;;;;;;10515028;28;20202;-71
2022/03/24 17:25:16;;;;;;;27.37;20.53;;;16.00;43.50;;;;;;10516492;28;20225;-71
2022/03/24 17:30:17;;;;;;;26.13;19.90;;;15.80;43.80;;;;;;10512698;28;20274;-72
2022/03/24 17:35:20;;;;;;;29.93;19.63;;;15.50;44.60;;;;;;10519851;28;20274;-71
2022/03/24 17:40:24;;;;;;;27.10;19.23;;;15.30;47.30;;;;;;10497775;28;20260;-71
2022/03/24 17:45:27;;;;;;;26.47;20.03;;;15.10;47.50;;;;;;10521306;28;20379;-71
2022/03/24 17:50:28;;;;;;;27.10;19.20;;;14.80;47.50;;;;;;10503414;28;20225;-70
2022/03/24 17:55:30;;;;;;;29.00;18.27;;;14.70;49.10;;;;;;10524048;28;20620;-72
2022/03/24 18:00:31;;;;;;;30.57;19.03;;;14.50;51.10;;;;;;10514182;28;20236;-69
2022/03/24 18:05:31;;;;;;;27.17;19.63;;;14.20;50.40;;;;;;10520975;28;20647;-71
2022/03/24 18:10:32;;;;;;;26.87;19.03;;;14.00;49.50;;;;;;10512120;28;20258;-71
2022/03/24 18:15:33;;;;;;;28.33;18.37;;;13.90;49.10;;;;;;10493508;28;20311;-70
2022/03/24 18:20:34;;;;;;;28.27;18.33;;;13.70;51.90;;;;;;10522799;28;20252;-71
2022/03/24 18:25:35;;;;;;;26.93;17.80;;;13.50;54.30;;;;;;10508508;28;20612;-71
2022/03/24 18:30:39;;;;;;;29.90;18.97;;;13.40;52.90;;;;;;10510719;28;20273;-71
2022/03/24 18:35:41;;;;;;;27.80;19.53;;;13.30;53.60;;;;;;10517490;28;20283;-71
2022/03/24 18:40:43;;;;;;;41.53;22.93;;;13.10;55.20;;;;;;10510185;28;20234;-71
2022/03/24 18:45:43;;;;;;;43.13;27.33;;;13.00;55.50;;;;;;10516936;28;20317;-70
2022/03/24 18:50:47;;;;;;;30.80;21.20;;;12.90;55.70;;;;;;10508162;28;20309;-71
2022/03/24 18:55:51;;;;;;;24.30;17.00;;;12.80;53.10;;;;;;10506950;28;20306;-70
2022/03/24 19:00:54;;;;;;;31.63;17.87;;;12.80;47.90;;;;;;10510444;28;20240;-71
2022/03/24 19:05:55;;;;;;;32.00;18.87;;;12.70;47.20;;;;;;10524498;28;20268;-72
2022/03/24 19:10:56;;;;;;;28.23;19.33;;;12.70;48.90;;;;;;10515044;28;21112;-71
2022/03/24 19:15:57;;;;;;;31.57;19.27;;;12.60;49.00;;;;;;10514290;28;20712;-72
2022/03/24 19:20:58;;;;;;;29.20;19.43;;;12.50;49.30;;;;;;10500128;28;20221;-71
2022/03/24 19:26:00;;;;;;;30.50;20.97;;;12.40;51.30;;;;;;10517800;28;20234;-70
2022/03/24 19:31:01;;;;;;;25.77;18.10;;;12.40;52.10;;;;;;10529765;28;20705;-71
2022/03/24 19:36:02;;;;;;;25.10;18.43;;;12.30;50.90;;;;;;10526117;28;20754;-71
2022/03/24 19:41:03;;;;;;;30.43;19.90;;;12.30;50.10;;;;;;10489355;28;20226;-71
2022/03/24 19:46:04;;;;;;;29.30;18.73;;;12.20;54.90;;;;;;10499955;28;20231;-71
2022/03/24 19:51:05;;;;;;;30.53;21.73;;;12.10;56.50;;;;;;10528227;28;20222;-72
2022/03/24 19:56:06;;;;;;;31.77;20.23;;;12.00;56.80;;;;;;10513478;28;20252;-72
2022/03/24 20:01:06;;;;;;;30.40;19.77;;;12.00;57.60;;;;;;10507062;28;20206;-72
2022/03/24 20:06:07;;;;;;;28.83;19.33;;;12.00;57.70;;;;;;10512897;28;20230;-72
2022/03/24 20:11:08;;;;;;;35.03;22.43;;;11.90;57.90;;;;;;10490599;28;20265;-71
2022/03/24 20:16:09;;;;;;;35.23;20.10;;;11.80;58.40;;;;;;10516980;28;20740;-72
2022/03/24 20:21:10;;;;;;;33.77;23.27;;;11.70;58.80;;;;;;10522711;28;20222;-71
2022/03/24 20:26:14;;;;;;;30.60;20.97;;;11.60;59.10;;;;;;10518422;28;20679;-70
2022/03/24 20:31:14;;;;;;;33.23;22.77;;;11.50;58.50;;;;;;10516314;28;20766;-72
2022/03/24 20:36:20;;;;;;;37.57;22.10;;;11.40;58.10;;;;;;10518944;28;20313;-72
2022/03/24 20:41:21;;;;;;;36.53;23.23;;;11.30;58.40;;;;;;10517986;28;20227;-73
2022/03/24 20:46:22;;;;;;;32.50;20.90;;;11.20;59.00;;;;;;10500016;28;20227;-72
2022/03/24 20:51:22;;;;;;;30.23;21.33;;;11.20;59.20;;;;;;10517025;28;20665;-73
2022/03/24 20:56:23;;;;;;;32.93;21.43;;;11.10;59.00;;;;;;10523319;28;20626;-72
2022/03/24 21:01:27;;;;;;;33.83;22.23;;;11.00;59.70;;;;;;10514164;28;20326;-73
2022/03/24 21:06:28;;;;;;;30.73;21.70;;;11.00;60.10;;;;;;10518332;28;20237;-72
2022/03/24 21:11:28;;;;;;;36.93;23.70;;;10.90;59.20;;;;;;10520984;28;20718;-73
2022/03/24 21:16:29;;;;;;;35.67;23.40;;;10.80;60.00;;;;;;10525040;28;20231;-72
2022/03/24 21:21:33;;;;;;;32.67;21.70;;;10.80;59.60;;;;;;10530030;28;20561;-71
2022/03/24 21:26:34;;;;;;;33.07;23.90;;;10.70;59.80;;;;;;10513945;28;20265;-72
2022/03/24 21:31:38;;;;;;;34.47;23.23;;;10.70;60.20;;;;;;10493504;28;20257;-72
2022/03/24 21:36:39;;;;;;;51.33;33.30;;;10.60;59.90;;;;;;10507861;28;20615;-72
2022/03/24 21:41:39;;;;;;;52.93;34.17;;;10.60;60.40;;;;;;10503215;28;20394;-72
2022/03/24 21:46:40;;;;;;;51.80;32.43;;;10.60;60.40;;;;;;10508896;28;20290;-72
2022/03/24 21:51:41;;;;;;;78.67;41.93;;;10.50;60.70;;;;;;10516931;28;20305;-72
2022/03/24 21:56:43;;;;;;;78.87;40.50;;;10.40;61.00;;;;;;10521442;28;20221;-73
2022/03/24 22:01:44;;;;;;;68.97;37.93;;;10.40;61.30;;;;;;10516063;28;20228;-72
2022/03/24 22:06:44;;;;;;;52.60;32.80;;;10.40;60.90;;;;;;10519709;28;20222;-72
2022/03/24 22:11:45;;;;;;;43.80;27.83;;;10.30;61.60;;;;;;10536369;28;20329;-72
2022/03/24 22:16:45;;;;;;;42.73;26.90;;;10.10;61.20;;;;;;10518958;28;20226;-73
2022/03/24 22:21:46;;;;;;;38.10;25.53;;;10.10;62.10;;;;;;10499532;28;20250;-73
2022/03/24 22:26:47;;;;;;;37.53;26.03;;;10.00;62.30;;;;;;10510241;28;20226;-73
2022/03/24 22:31:47;;;;;;;34.70;23.83;;;10.00;63.60;;;;;;10491419;28;20284;-73
2022/03/24 22:36:48;;;;;;;34.10;22.47;;;9.90;64.40;;;;;;10508880;28;20369;-72
2022/03/24 22:41:49;;;;;;;35.87;23.70;;;9.80;64.00;;;;;;10505827;28;20222;-73
2022/03/24 22:46:50;;;;;;;31.77;21.63;;;9.80;65.10;;;;;;10508915;28;20222;-73
2022/03/24 22:51:52;;;;;;;37.80;23.87;;;9.80;65.70;;;;;;10508412;28;20230;-73
2022/03/24 22:56:53;;;;;;;40.03;24.10;;;9.70;64.90;;;;;;10516181;28;20230;-71
2022/03/24 23:01:54;;;;;;;37.40;23.83;;;9.60;65.40;;;;;;10507988;28;20280;-73
2022/03/24 23:06:55;;;;;;;34.50;23.43;;;9.50;65.90;;;;;;10507033;28;20304;-72
2022/03/24 23:11:55;;;;;;;43.00;25.37;;;9.40;66.90;;;;;;10514796;28;20245;-71
2022/03/24 23:16:56;;;;;;;36.43;21.60;;;9.30;68.40;;;;;;10487176;28;20227;-71
2022/03/24 23:21:58;;;;;;;36.27;23.13;;;9.30;69.20;;;;;;10510733;28;20230;-71
2022/03/24 23:26:59;;;;;;;35.77;24.13;;;9.20;70.00;;;;;;10514658;28;20301;-69
2022/03/24 23:31:59;;;;;;;34.63;22.90;;;9.20;70.80;;;;;;10519555;28;20305;-70
2022/03/24 23:37:01;;;;;;;31.17;21.87;;;9.10;70.90;;;;;;10491895;28;20760;-71
2022/03/24 23:42:02;;;;;;;32.77;22.50;;;9.10;71.40;;;;;;10523413;28;20223;-69
2022/03/24 23:47:03;;;;;;;33.30;21.93;;;9.00;71.40;;;;;;10517231;28;20309;-70
2022/03/24 23:52:05;;;;;;;34.40;23.07;;;8.90;71.80;;;;;;10531829;28;20249;-70
2022/03/24 23:57:06;;;;;;;33.50;22.53;;;8.80;73.20;;;;;;10529418;28;20642;-71
